Vesuvius, Virginia
Current Conditions -  °F | °C
As of 7:15 PM on Friday 28 Nov 2014 (Local Time) from KW13 Reporting Station
Overcast Overcast  
Wind Chill: 25°   Ceiling: 9000
Heat Index: 30°   Visibility: 10mi
Dew Point: 17°   Wind: 6mph
Humidity: 58%   Direction: 230°SW
Pressure: 30.24"   Gusts: NA
Location:  37.91°N, 79.2°W
Report Text: KW13 290015Z AUTO 23005KT 10SM OVC090 M01/M08 A3024 RMK AO1 T10091083
Loading
Personal Weather Stations






























Interactive Weather Map New forecast layout! Learn more

10-Day Weather Forecast

Advertisements
Track Severe Weather on mobile